NWS Home NWS Lubbock West Texas Mesonet Three hour changes as of 1213 PM, Sun Jun 25, 2017

Latest   N   C   S   Daily Sum   3hrΔ   24hrΔ   Soil Data 
Site Map   24hr Precip   72hr Precip   Google Plot


Station Time of Last Temp Now Temp 3h ago Delta-T Dewpoint Now Dewpoint 3hr ago Delta-Td 3hr Press Change (mB)
Reese Center  12:05 PM 76.2 69.5 6.7 60.4 61.4 -1 0.7
Abernathy  12:05 PM 73.8 67.2 6.6 62.6 62.3 0.3 0.5
Plainview  12:05 PM 69.1 67.3 1.8 59 63 -4 0.4
Tahoka  12:05 PM 79.1 71.1 8 60.3 61.2 -1 -0.2
Slaton  12:05 PM 77.7 69.6 8.1 61.5 61.4 0.1 0.1
Levelland  12:05 PM 76.4 68.4 8 60.3 62.5 -2.2 0.3
Roaring Springs  12:05 PM 77.1 70.4 6.7 64.2 65.4 -1.2 0.4
Floydada  12:05 PM 73.1 69.2 3.9 62.5 62.5 0 0.7
Ralls  12:05 PM 75.5 68.4 7.1 60.9 61.7 -0.8 0.4
Brownfield  12:05 PM 77.7 70.2 7.6 61.4 61.5 -0 0
Muleshoe  12:05 PM 73 67.7 5.3 63.3 63.8 -0.5 0.2
Morton  12:05 PM 74 66.8 7.2 64.8 64.1 0.7 0.9
O'Donnell  12:05 PM 79.3 71.6 7.6 58 59.8 -1.8 0.3
Seagraves  12:05 PM 76.9 69.7 7.2 63.6 63.9 -0.3 0.4
Amherst  12:05 PM 75.4 68.5 6.9 61.1 62.1 -1 0.2
Plains  12:05 PM 72.6 69.5 3.1 62 62.2 -0.3 0.4
Lamesa  12:05 PM 81.3 72.7 8.6 61.6 62.4 -0.8 -0.1
Hart  12:05 PM 65.1 66.5 -1.3 62.4 62.9 -0.4 -1.1
Friona  12:05 PM 70.4 65.7 4.7 64.8 61.7 3.1 0.1
Dimmitt  12:05 PM 69.5 66 3.5 63.7 61.5 2.2 -0.8
Tulia  12:05 PM 66.1 66.2 -0.1 61.3 63.1 -1.9 -1.5
Silverton  12:05 PM 68.8 67.1 1.8 62.9 62.7 0.2 -0.4
Post  12:05 PM 81.7 73.4 8.2 60.9 60.7 0.2 0.2
Seminole  12:05 PM 78.3 70.3 7.9 62 63.1 -1.1 0.7
Gail  11:20 AM 80.7 72.4 8.4 61.4 62.3 -0.8 0.5
White River Lake  12:05 PM 75.8 71.3 4.5 61 62.4 -1.4 0.6
Graham  12:05 PM 79.1 71.5 7.6 61.3 61.9 -0.6 0.2
Sundown  12:05 PM 75.4 68.7 6.6 62.6 63.1 -0.5 0.6
Anton  12:05 PM 77.2 69.3 7.9 63.2 62.7 0.6 0.5
Fluvanna  12:05 PM 80.4 73.1 7.3 60.8 61.6 -0.8 0.5
Spur  12:05 PM 79.4 71.5 7.9 61.3 64 -2.7 0.4
Northwest Lubbock  12:05 PM 77.4 69.5 7.9 60.3 62.5 -2.2 0.5
Guthrie  12:05 PM 81.5 73.5 8 61.4 62.5 -1.2 0.3
Clarendon  12:05 PM 67.5 66.1 1.4 63 62 1.1 -0.6
Paducah  12:05 PM 78.8 71.8 7 62 62.2 -0.1 0.1
Snyder  12:05 PM 82.9 75 7.9 65.2 65.4 -0.2 0.4
Memphis  12:05 PM 73.1 69.8 3.4 61.1 62.3 -1.2 0.7
Jayton  12:05 PM 78.9 72.9 6 62.6 64.6 -2.1 0.3
Pampa  12:05 PM 63.7 63.3 0.4 62 61.7 0.3 -0.3
Aspermont  12:05 PM 80.1 75.2 4.9 64.3 64.9 -0.6 0.6
Hereford  12:05 PM 70.1 64.1 6 60.7 60.1 0.6 -0.9
Goodlett  12:05 PM 77.3 73.2 4.1 60.1 59.9 0.2 0.5
McLean  12:05 PM 64.8 64.3 0.5 61.4 61.6 -0.2 0.8
Denver City  12:05 PM 72.7 68.8 3.9 61.4 60.9 0.4 0.8
Lake Alan Henry  12:05 PM 80.7 74 6.6 62.5 62.9 -0.5 0.1
Wolfforth  12:05 PM 76 70 6 60.2 61.5 -1.3 0.5
Andrews  12:05 PM 81.4 72.2 9.2 61.2 62.9 -1.7 0.1
Turkey  12:05 PM 73.2 69.8 3.4 65.3 65.8 -0.5 0.3
Childress  12:05 PM 76.8 71.5 5.3 61.5 60.7 0.9 0.8
Tatum  12:05 PM 72 68.5 3.5 61.3 61.3 -0 0.6
Northfield  12:05 PM 76.5 71.8 4.7 61.8 62.7 -0.9 0.4
Dora  12:05 PM 69 65.1 3.9 62.7 63.7 -0.9 0.9
Northwest San Angelo  07:45 PM 79.5 104.4 -24.9 64.2 51.7 12.5 2
Saint Lawrence  12:05 PM 81.7 72.8 8.9 60.8 64.2 -3.4 0.4
Haskell  12:05 PM 76.8 73.3 3.5 64.2 63.3 0.9 0.6
Wall  12:05 PM 79.4 71.9 7.5 65.6 66.9 -1.3 0.2
Seymour  12:05 PM 80.6 73.2 7.4 62 62.4 -0.4 0.3
Knox City  12:05 PM 79.1 74.7 4.3 62.9 62.1 0.8 0.4
Guadalupe Mtns Park  12:05 PM 74 64 10 59 59.6 -0.6 -0.1
Caprock Canyons   12:05 PM 72.8 67.9 4.9 64.6 64.9 -0.3 -0.1
Odell  03:05 PM 76.4 70.8 5.7 65.8 65.4 0.4 -1.5
Coyanosa  12:05 PM 86.4 76.2 10.2 61.3 63.1 -1.8 -0.5
Big Lake  12:05 PM 82.8 74.6 8.3 62 63.5 -1.5 0.1
Junction  12:05 PM 82.6 74.5 8.1 66.7 68.3 -1.5 0.3
Hobbs  12:05 PM 74.1 68.9 5.2 63.2 64.6 -1.3 0.5
Canadian  04:20 PM 85.1 80.1 5.1 53.6 53.5 0.1 -2
Palo Duro Canyon State Park Rim  12:05 PM 66.7 64 2.8 60.8 62.8 -2 -0.4
Bootleg  12:05 PM 72.4 62.4 10 62 61.4 0.7 -0.8
Sterling City  12:05 PM 82.2 74 8.2 63.1 64.5 -1.5 0.5
Mertzon  12:05 PM 80.3 71.4 8.9 66.4 65.6 0.8 0.3
Persimmon Gap  12:05 PM 81.6 71.6 10 64.3 64.9 -0.6 -0.2
Weinert  12:05 PM 78.1 73.5 4.6 66.6 64.2 2.4 0.4
Claude 12 Southwest  12:05 PM 68 63.9 4.1 61.7 63.3 -1.7 -0.1
Amarillo 7 South Southeast  12:05 PM 68.8 63.9 5 61.5 62.4 -0.9 0.5
Umbarger  12:05 PM 70.6 63.7 6.9 59.9 61.8 -1.9 0.1
Lomax  12:05 PM 81.5 73 8.5 64.4 65 -0.6 0.2
Amarillo 9 North Northeast  12:05 PM 73.7 64.9 8.8 60.9 64.9 -4.1 0.6
Aiken 3 West Southwest  12:05 PM 65.6 67.4 -1.9 63.2 63.4 -0.2 0.6
Sweetwater  12:05 PM 76 73.8 2.1 65.6 65.9 -0.4 0.8
Dozier  07:40 AM 68.1 69.1 -1 62.2 64 -1.9 0.6
Amarillo 15 North Northwest  12:05 PM 74.2 65.7 8.5 59.6 63.9 -4.2 -0.3
Menard  12:05 PM 80 73.3 6.7 66 67.3 -1.2 0.6
Tarzan  12:05 PM 81.4 72.4 9.1 64 64.7 -0.8 0.1
Goodnight  12:05 PM 66.9 65.5 1.5 65.6 64.5 1.1 0.6
Boys Ranch   12:05 PM 75.2 66.2 9 60.1 63.4 -3.3 -0
Fort McKavett  12:05 PM 82 73.8 8.1 66.1 66.8 -0.7 0.4
Fort Chadbourne  12:05 PM 76 72.9 3.1 65.5 67.7 -2.1 1
Palo Duro Canyon State Park Floor  12:05 PM 70 65.8 4.2 64.1 64.5 -0.4 -0.6
Fort Lancaster  12:05 PM 86 76.1 9.9 62.2 65.3 -3.1 -0.3
Dell City 1N  12:05 PM 83.8 78.2 5.6 62.1 63.7 -1.6 0.7
Clyde  12:05 PM 77.7 70.3 7.3 65.8 66.5 -0.7 0.5
Snyder SSW  12:05 PM 80.3 74.7 5.6 64.3 65 -0.7 0.3
Panhandle  12:05 PM 72.7 64.4 8.2 62.4 62.8 -0.4 -0.4
Vigo Park  12:05 PM 64.7 65.8 -1.1 63.2 63.1 0.2 -1.2
Welch  12:05 PM 79.3 72.3 7.1 62.3 63.6 -1.3 0
Throckmorton  12:05 PM 79.1 70.8 8.3 67.5 65.1 2.4 0.2
Sierra Blanca  12:05 PM 83.1 74.7 8.4 61.7 61.9 -0.2 0.1
Fort Lewis CO  12:05 PM 73.1 64.9 8.2 47.1 41.8 5.4 -0.2
New Home  12:05 PM 77.9 70.7 7.2 62 62.1 -0.1 0.1
McCamey  12:05 PM 85.8 76.1 9.7 60.7 64.7 -4 -0.3
Stamford  12:05 PM 80.2 74.2 6 65.6 66.7 -1 0.6
Crowell  12:05 PM 79.6 74.7 4.9 65.1 62.8 2.3 0.4
Stinnett  12:05 PM 69.5 65.4 4.1 63.5 63.7 -0.2 0
Olton  12:05 PM 69.3 68.7 0.6 60.9 61 -0.1 0.5

West Texas Mesonet Home   Site Map/Menu  NWS Lubbock Soil Data  Daily Summary Page  24hr Precip  72hr Precip  Google Plot